Дата Пункты Температура Давл., мм. Влажн., % Ветер Погодные явления
Воздуха Воды Направл. Скорость
23.06.18 12:00 Одесса 27.0 23.0 753 56 С-З 2 12 ЧАСОВ
23.06.18 09:00 Одесса 23.0 23.0 752 70 С 1 09 ЧАСОВ
23.06.18 06:00 Одесса 19.0 23.0 753 85 С-З 1 06 ЧАСОВ
23.06.18 03:00 Одесса 20.0 23.0 752 84 С-З 2 03 ЧАСА
22.06.18 09:00 Одесса 25.0 24.0 753 64 З 2 21 ЧАС
22.06.18 06:00 Одесса 27.0 24.0 752 67 Ю 3 18 ЧАСОВ
22.06.18 03:00 Одесса 27.0 24.0 753 68 Ю 3 15 ЧАСОВ
22.06.18 12:00 Одесса 27.0 24.0 754 62 Ю 3 12 ЧАСОВ
22.06.18 09:00 Одесса 27.0 24.0 755 54 Ю 2 09 ЧАСОВ
22.06.18 06:00 Одесса 22.0 24.0 755 64 С 0 06 ЧАСОВ
22.06.18 03:00 Одесса 22.0 24.0 755 68 З 1 03 ЧАСА
21.06.18 09:00 Одесса 25.0 24.0 756 49 С 0 21 ЧАС
21.06.18 06:00 Одесса 28.0 24.0 757 45 С 0 18 ЧАСОВ
21.06.18 03:00 Одесса 28.0 24.0 758 53 Ю 2 15 ЧАСОВ
21.06.18 12:00 Одесса 27.0 24.0 759 53 Ю-В 2 12 ЧАСОВ
21.06.18 09:00 Одесса 28.0 24.0 760 48 С 1 09 ЧАСОВ
21.06.18 06:00 Одесса 22.0 24.0 760 60 С-З 2 06 ЧАСОВ
21.06.18 03:00 Одесса 23.0 24.0 760 58 С-З 1 03 ЧАСА
20.06.18 09:00 Одесса 28.0 24.0 759 47 С-З 1 21 ЧАС
20.06.18 06:00 Одесса 28.0 23.0 759 57 С 0 18 ЧАСОВ
Количество строк
1 2 3 4 5 6 7 8 9 10
Page 9 of 382